CheckWX is a tool to help pilots better visualize weather data.  It is not intended as a substitute for an official pre-flight weather briefing.

02:05:07 UTC

CYHA METAR
Quaqtaq Airport
Quaqtaq, Canada
Current

7 hours ago

CYHA 271900Z 32004KT 280V350 15SM SCT018 M01/M07 A3005 RMK SC4 SN CVR/NIL LAST STFD OBS/NEXT OBS 281200UTC SLP179
Observed
May-27 @ 19:00 UTC
Wind
  • 320° at 4 KTS
Visibility
Flight Rules
VFR
Cloud Levels
  • Scattered at 1,800' AGL
Temperature
-1°C / 30°F
Dewpoint
-7°C / 19°F
Humidity
64%
Altimeter
30.05" Hg
Pressure
1017.62 hPa
Previous

9 hours ago

CYHA 271700Z 31007KT 270V350 15SM BKN020 M01/M06 A3006 RMK SC7 SLP184
Observed
May-27 @ 17:00 UTC
Wind
  • 310° at 7 KTS
Visibility
Flight Rules
MVFR
Cloud Levels
  • Broken at 2,000' AGL
Temperature
-1°C / 30°F
Dewpoint
-6°C / 21°F
Humidity
69%
Altimeter
30.06" Hg
Pressure
1017.92 hPa
Previous

10 hours ago

CYHA 271600Z 35007KT 15SM OVC019 M01/M06 A3006 RMK SC8 SLP184
Observed
May-27 @ 16:00 UTC
Wind
  • 350° at 7 KTS
Visibility
Flight Rules
MVFR
Cloud Levels
  • Overcast at 1,900' AGL
Temperature
-1°C / 30°F
Dewpoint
-6°C / 21°F
Humidity
69%
Altimeter
30.06" Hg
Pressure
1017.92 hPa